Time;durP1;ratioP1;P1;durP2;ratioP2;P2;SDS_P1;SDS_P2;PMS_P1;PMS_P2;Temp;Humidity;BMP_temperature;BMP_pressure;BME280_temperature;BME280_humidity;BME280_pressure;Samples;Min_cycle;Max_cycle;Signal;HPM_P1;HPM_P2
2022/07/16 00:01:26;;;;;;;7.68;4.07;;;;;;;16.30;100.00;101772.53;5018519;28;20041;-79
2022/07/16 00:03:57;;;;;;;9.98;4.25;;;;;;;16.26;100.00;101777.44;5016387;28;20101;-80
2022/07/16 00:06:25;;;;;;;13.55;4.07;;;;;;;16.09;100.00;101773.41;5036681;28;20033;-80
2022/07/16 00:08:51;;;;;;;11.63;4.63;;;;;;;15.85;100.00;101768.16;5041116;28;20098;-79
2022/07/16 00:11:18;;;;;;;8.43;4.18;;;;;;;15.79;100.00;101771.47;5037007;28;20059;-79
2022/07/16 00:13:43;;;;;;;9.20;4.25;;;;;;;15.97;100.00;101764.31;5048884;28;20041;-80
2022/07/16 00:16:10;;;;;;;11.50;4.40;;;;;;;16.03;100.00;101771.19;5041797;28;20044;-80
2022/07/16 00:21:22;;;;;;;7.55;4.22;;;;;;;16.10;100.00;101779.81;5042956;28;20092;-79
2022/07/16 00:23:48;;;;;;;16.30;4.85;;;;;;;16.00;100.00;101779.72;5022515;28;20033;-80
2022/07/16 00:26:13;;;;;;;10.57;4.75;;;;;;;15.69;100.00;101781.50;5043324;28;20503;-80
2022/07/16 00:28:39;;;;;;;12.20;4.45;;;;;;;15.66;100.00;101773.47;5052328;28;20090;-80
2022/07/16 00:31:04;;;;;;;9.98;4.78;;;;;;;15.67;100.00;101781.63;5025520;28;20037;-79
2022/07/16 00:33:30;;;;;;;9.85;4.35;;;;;;;15.69;100.00;101774.13;5054079;28;20088;-79
2022/07/16 00:35:55;;;;;;;18.33;4.55;;;;;;;15.69;100.00;101771.34;5037107;28;20481;-79
2022/07/16 00:38:21;;;;;;;10.18;4.55;;;;;;;15.60;100.00;101773.00;5037260;28;20127;-78
2022/07/16 00:40:47;;;;;;;12.25;4.63;;;;;;;15.58;100.00;101769.50;5045662;28;20103;-78
2022/07/16 00:43:14;;;;;;;8.13;4.50;;;;;;;15.67;100.00;101773.34;5049613;28;20044;-77
2022/07/16 00:45:40;;;;;;;10.20;3.95;;;;;;;15.74;100.00;101784.72;5041405;28;20095;-78
2022/07/16 00:48:06;;;;;;;9.55;4.03;;;;;;;15.77;100.00;101778.97;5037086;28;20055;-78
2022/07/16 00:50:32;;;;;;;9.82;4.35;;;;;;;15.80;100.00;101773.19;5038963;28;20112;-80
2022/07/16 00:52:59;;;;;;;7.53;4.63;;;;;;;15.76;100.00;101769.84;5042182;28;20536;-78
2022/07/16 00:55:25;;;;;;;7.78;4.05;;;;;;;15.70;100.00;101769.47;5042062;28;20039;-78
2022/07/16 00:57:51;;;;;;;10.73;4.15;;;;;;;15.61;100.00;101779.41;5053715;28;20116;-79
2022/07/16 01:00:16;;;;;;;8.30;4.18;;;;;;;15.58;100.00;101772.25;5042849;28;20451;-79
2022/07/16 01:02:42;;;;;;;7.75;4.82;;;;;;;15.54;100.00;101775.41;5038033;28;20404;-79
2022/07/16 01:05:08;;;;;;;5.10;3.40;;;;;;;15.57;100.00;101770.50;5024553;28;20091;-79
2022/07/16 01:07:35;;;;;;;7.25;3.70;;;;;;;15.77;100.00;101768.84;5032145;28;20064;-78
2022/07/16 01:10:04;;;;;;;8.07;3.65;;;;;;;15.87;100.00;101759.72;5039733;28;20025;-78
2022/07/16 01:12:31;;;;;;;8.82;3.35;;;;;;;15.92;100.00;101762.97;5025785;28;20055;-79
2022/07/16 01:14:57;;;;;;;10.32;3.65;;;;;;;16.02;100.00;101766.69;5045337;28;20083;-79
2022/07/16 01:17:24;;;;;;;8.15;3.33;;;;;;;16.10;100.00;101769.66;5052277;28;20033;-79
2022/07/16 01:19:50;;;;;;;8.93;3.67;;;;;;;16.18;100.00;101766.19;5038508;28;20036;-78
2022/07/16 01:22:19;;;;;;;18.77;3.72;;;;;;;16.18;100.00;101771.72;5039198;28;20037;-79
2022/07/16 01:24:45;;;;;;;8.32;3.47;;;;;;;16.28;100.00;101766.25;5039642;28;20481;-79
2022/07/16 01:27:10;;;;;;;8.13;3.20;;;;;;;16.24;100.00;101764.78;5016390;28;20037;-78
2022/07/16 01:29:36;;;;;;;6.00;3.38;;;;;;;16.21;100.00;101763.16;5051728;28;20048;-78
2022/07/16 01:32:01;;;;;;;7.57;3.67;;;;;;;16.16;100.00;101766.31;5004740;28;20040;-78
2022/07/16 01:34:27;;;;;;;6.88;3.05;;;;;;;16.09;100.00;101761.50;5058017;28;20396;-78
2022/07/16 01:36:58;;;;;;;7.18;3.40;;;;;;;16.08;100.00;101763.38;5039008;28;20021;-78
2022/07/16 01:39:25;;;;;;;5.53;2.85;;;;;;;16.10;100.00;101754.94;5019387;28;20104;-78
2022/07/16 01:41:55;;;;;;;6.75;2.90;;;;;;;16.19;100.00;101756.91;5041626;28;20091;-78
2022/07/16 01:44:24;;;;;;;4.90;3.20;;;;;;;16.12;100.00;101764.00;5048315;28;20040;-77
2022/07/16 01:46:54;;;;;;;6.57;3.10;;;;;;;16.09;100.00;101761.50;5037298;28;20029;-78
2022/07/16 01:49:21;;;;;;;10.65;3.30;;;;;;;16.10;100.00;101766.88;5039002;28;20903;-78
2022/07/16 01:51:47;;;;;;;6.53;3.40;;;;;;;16.11;100.00;101765.00;5044145;28;20071;-78
2022/07/16 01:54:13;;;;;;;5.82;3.10;;;;;;;16.13;100.00;101757.44;5058655;28;20034;-78
2022/07/16 01:56:38;;;;;;;7.70;3.22;;;;;;;16.12;100.00;101756.56;5038150;28;20056;-78
2022/07/16 01:59:04;;;;;;;10.50;3.70;;;;;;;16.05;100.00;101754.47;5043426;28;20040;-78
2022/07/16 02:01:30;;;;;;;7.10;3.38;;;;;;;16.04;100.00;101755.50;5038122;28;20037;-78
2022/07/16 02:03:55;;;;;;;8.77;3.55;;;;;;;16.04;100.00;101742.56;5043342;28;20025;-78
2022/07/16 02:06:21;;;;;;;9.35;3.38;;;;;;;16.07;100.00;101746.91;5023957;28;20051;-79
2022/07/16 02:08:46;;;;;;;10.45;3.47;;;;;;;16.23;100.00;101747.31;5056270;28;20029;-79
2022/07/16 02:11:12;;;;;;;5.25;2.83;;;;;;;16.21;100.00;101751.25;5054443;28;20059;-79
2022/07/16 02:13:37;;;;;;;5.97;2.75;;;;;;;16.27;100.00;101761.75;5038571;28;20086;-78
2022/07/16 02:16:03;;;;;;;5.00;3.17;;;;;;;16.13;100.00;101744.53;5048973;28;20042;-78
2022/07/16 02:18:29;;;;;;;4.88;2.70;;;;;;;16.19;100.00;101753.28;5046808;28;20362;-78
2022/07/16 02:20:54;;;;;;;3.97;2.80;;;;;;;16.19;100.00;101756.03;5036689;28;20377;-79
2022/07/16 02:23:21;;;;;;;7.28;3.08;;;;;;;16.10;100.00;101754.94;5042379;28;20036;-79
2022/07/16 02:25:47;;;;;;;9.90;2.83;;;;;;;16.05;100.00;101755.34;5043377;28;20056;-78
2022/07/16 02:28:12;;;;;;;5.72;2.67;;;;;;;16.11;100.00;101756.69;5038302;28;20055;-79
2022/07/16 02:30:40;;;;;;;5.32;2.78;;;;;;;15.98;100.00;101755.00;5050290;28;20032;-79
2022/07/16 02:33:08;;;;;;;8.82;2.97;;;;;;;16.09;100.00;101755.97;5046587;28;20036;-79
2022/07/16 02:35:34;;;;;;;5.47;2.97;;;;;;;15.98;100.00;101757.78;5043151;28;20037;-79
2022/07/16 02:38:00;;;;;;;7.40;3.15;;;;;;;15.92;100.00;101750.03;5039509;28;20046;-79
2022/07/16 02:40:27;;;;;;;4.85;2.85;;;;;;;16.15;100.00;101749.88;5016927;28;20033;-79
2022/07/16 02:42:53;;;;;;;7.55;2.85;;;;;;;16.03;100.00;101749.09;5049948;28;20036;-79
2022/07/16 02:45:18;;;;;;;6.88;2.83;;;;;;;15.93;100.00;101745.38;5044824;28;20067;-79
2022/07/16 02:47:44;;;;;;;6.43;2.72;;;;;;;15.89;100.00;101753.06;5043383;28;20037;-79
2022/07/16 02:50:10;;;;;;;5.72;2.80;;;;;;;15.80;100.00;101751.97;5045084;28;20390;-78
2022/07/16 02:52:35;;;;;;;4.47;2.60;;;;;;;15.84;100.00;101757.22;5034929;28;20068;-78
2022/07/16 02:55:02;;;;;;;5.15;2.75;;;;;;;15.85;100.00;101750.72;5020447;28;20043;-78
2022/07/16 02:57:28;;;;;;;6.50;2.88;;;;;;;15.81;100.00;101741.81;5048114;28;20060;-78
2022/07/16 02:59:53;;;;;;;6.90;2.85;;;;;;;15.77;100.00;101745.84;5039131;28;20037;-79
2022/07/16 03:02:19;;;;;;;5.05;2.80;;;;;;;15.78;100.00;101745.72;5043490;28;20033;-79
2022/07/16 03:04:45;;;;;;;8.65;3.03;;;;;;;15.85;100.00;101742.44;5042364;28;20052;-78
2022/07/16 03:07:10;;;;;;;6.22;2.40;;;;;;;15.87;100.00;101732.09;5042062;28;20041;-78
2022/07/16 03:09:36;;;;;;;3.42;2.42;;;;;;;15.93;100.00;101740.72;5031066;28;20099;-78
2022/07/16 03:12:01;;;;;;;5.43;2.38;;;;;;;15.78;100.00;101736.56;5020885;28;20503;-78
2022/07/16 03:14:27;;;;;;;6.22;3.10;;;;;;;15.92;100.00;101740.84;5035061;28;20104;-77
2022/07/16 03:16:52;;;;;;;6.05;2.53;;;;;;;15.93;100.00;101740.72;5042940;28;20424;-78
2022/07/16 03:19:18;;;;;;;5.43;3.22;;;;;;;16.02;100.00;101743.69;5001151;28;20044;-78
2022/07/16 03:21:43;;;;;;;6.57;2.58;;;;;;;15.99;100.00;101745.72;5038038;28;20037;-78
2022/07/16 03:24:09;;;;;;;7.70;2.97;;;;;;;15.98;100.00;101738.44;5026768;28;20072;-78
2022/07/16 03:26:34;;;;;;;6.80;2.50;;;;;;;16.05;100.00;101747.06;5038905;28;20460;-78
2022/07/16 03:29:00;;;;;;;5.93;2.40;;;;;;;15.88;100.00;101750.44;5027971;28;20041;-78
2022/07/16 03:31:25;;;;;;;6.63;2.55;;;;;;;15.96;100.00;101750.66;5034726;28;20502;-78
2022/07/16 03:33:51;;;;;;;6.35;2.25;;;;;;;15.86;100.00;101745.06;5043827;28;20546;-78
2022/07/16 03:36:16;;;;;;;7.88;2.38;;;;;;;15.77;100.00;101743.97;5044492;28;20115;-79
2022/07/16 03:38:59;;;;;;;6.22;2.55;;;;;;;15.73;100.00;101744.34;5040842;28;20104;-79
2022/07/16 03:41:24;;;;;;;8.40;2.65;;;;;;;15.86;100.00;101758.84;5035690;28;20040;-80
2022/07/16 03:43:50;;;;;;;6.57;2.80;;;;;;;15.79;100.00;101758.53;5040062;28;20489;-78
2022/07/16 03:46:17;;;;;;;4.18;2.58;;;;;;;15.80;100.00;101760.25;5051937;28;20040;-78
2022/07/16 03:48:43;;;;;;;5.18;2.67;;;;;;;15.84;100.00;101763.66;5043723;28;20030;-79
2022/07/16 03:51:08;;;;;;;4.47;2.40;;;;;;;15.84;100.00;101769.16;5013398;28;20043;-79
2022/07/16 03:53:34;;;;;;;6.93;2.58;;;;;;;15.86;100.00;101769.03;5043202;28;20033;-78
2022/07/16 03:56:00;;;;;;;8.00;2.67;;;;;;;15.86;100.00;101769.91;5040879;28;20116;-78
2022/07/16 03:58:26;;;;;;;10.25;2.25;;;;;;;15.98;100.00;101760.53;5045349;28;20084;-79
2022/07/16 04:00:52;;;;;;;7.22;2.58;;;;;;;16.03;100.00;101760.13;5037983;28;20041;-79
2022/07/16 04:03:19;;;;;;;4.07;2.33;;;;;;;16.13;100.00;101774.91;5042542;28;20128;-79
2022/07/16 04:05:45;;;;;;;3.47;2.42;;;;;;;16.05;100.00;101762.75;5055221;28;20037;-78
2022/07/16 04:08:11;;;;;;;8.02;2.80;;;;;;;16.16;100.00;101770.97;5055250;28;20086;-79
2022/07/16 04:10:36;;;;;;;5.72;2.53;;;;;;;16.17;100.00;101775.50;5045145;28;20124;-79
2022/07/16 04:13:02;;;;;;;5.90;2.70;;;;;;;16.24;100.00;101781.38;5050916;28;20817;-79
2022/07/16 04:15:28;;;;;;;3.30;2.30;;;;;;;16.22;100.00;101778.75;5044589;28;20033;-80
2022/07/16 04:17:53;;;;;;;5.18;2.30;;;;;;;16.12;100.00;101770.38;5043145;28;20341;-80
2022/07/16 04:20:19;;;;;;;6.85;2.95;;;;;;;16.19;100.00;101776.25;5033380;28;20033;-80
2022/07/16 04:22:45;;;;;;;4.93;2.50;;;;;;;16.24;100.00;101779.47;5039271;28;20029;-79
2022/07/16 04:25:12;;;;;;;4.40;2.58;;;;;;;16.27;100.00;101781.97;5040429;28;20489;-80
2022/07/16 04:27:42;;;;;;;5.38;2.50;;;;;;;16.33;100.00;101786.06;5042750;28;20040;-80
2022/07/16 04:30:09;;;;;;;5.57;2.70;;;;;;;16.27;100.00;101783.88;5054007;28;20103;-84
2022/07/16 04:32:40;;;;;;;5.30;2.35;;;;;;;16.36;100.00;101791.31;5039057;28;20027;-81
2022/07/16 04:35:08;;;;;;;10.20;3.38;;;;;;;16.47;100.00;101793.13;5026732;28;21613;-81
2022/07/16 04:37:33;;;;;;;8.07;3.50;;;;;;;16.44;100.00;101785.13;5022064;28;20061;-81
2022/07/16 04:39:59;;;;;;;6.25;2.90;;;;;;;16.49;100.00;101797.50;5059093;28;20029;-81
2022/07/16 04:42:25;;;;;;;5.90;3.20;;;;;;;16.52;100.00;101802.75;5059994;28;20025;-81
2022/07/16 04:44:51;;;;;;;5.80;3.22;;;;;;;16.64;100.00;101800.81;5041573;28;20044;-80
2022/07/16 04:47:16;;;;;;;8.00;3.33;;;;;;;16.67;100.00;101794.09;5038250;28;20053;-81
2022/07/16 04:49:42;;;;;;;7.70;3.42;;;;;;;16.81;100.00;101796.50;5031444;28;20057;-78
2022/07/16 04:52:08;;;;;;;7.32;3.25;;;;;;;16.82;100.00;101795.50;5039900;28;20049;-78
2022/07/16 04:54:33;;;;;;;5.20;3.42;;;;;;;16.89;100.00;101798.63;5034401;28;20151;-79
2022/07/16 04:56:59;;;;;;;9.75;3.50;;;;;;;17.03;100.00;101806.50;5041756;28;20024;-78
2022/07/16 04:59:25;;;;;;;8.70;3.90;;;;;;;17.09;100.00;101802.31;5043056;28;20041;-79
2022/07/16 05:01:51;;;;;;;9.70;4.57;;;;;;;17.12;100.00;101809.44;5049629;28;20067;-78
2022/07/16 05:04:16;;;;;;;5.85;4.35;;;;;;;17.12;100.00;101804.81;5038867;28;20116;-79
2022/07/16 05:06:42;;;;;;;9.48;4.28;;;;;;;17.17;100.00;101808.03;5044850;28;20045;-78
2022/07/16 05:09:07;;;;;;;8.45;4.90;;;;;;;17.24;100.00;101811.97;5051829;28;20036;-79
2022/07/16 05:11:33;;;;;;;13.00;4.50;;;;;;;17.25;100.00;101802.66;5041938;28;20451;-79
2022/07/16 05:13:58;;;;;;;12.48;4.93;;;;;;;17.29;100.00;101819.84;5050762;28;20028;-77
2022/07/16 05:16:24;;;;;;;17.98;5.30;;;;;;;17.22;100.00;101811.25;5024425;28;20056;-78
2022/07/16 05:18:50;;;;;;;12.38;5.45;;;;;;;17.24;100.00;101813.88;5036838;28;20034;-80
2022/07/16 05:21:16;;;;;;;9.90;5.50;;;;;;;17.26;100.00;101820.13;5041040;28;20033;-79
2022/07/16 05:23:41;;;;;;;11.95;5.22;;;;;;;17.16;100.00;101822.88;5027591;28;20041;-79
2022/07/16 05:26:07;;;;;;;9.60;5.50;;;;;;;17.07;100.00;101826.50;5051204;28;20048;-79
2022/07/16 05:28:33;;;;;;;13.80;5.78;;;;;;;17.17;100.00;101816.34;5055585;28;20037;-79
2022/07/16 05:30:58;;;;;;;12.18;5.90;;;;;;;17.28;100.00;101823.63;5039989;28;20033;-79
2022/07/16 05:33:24;;;;;;;7.80;5.63;;;;;;;17.21;100.00;101825.22;5016788;28;20120;-78
2022/07/16 05:35:49;;;;;;;11.23;5.68;;;;;;;17.60;100.00;101831.72;5035459;28;20087;-78
2022/07/16 05:38:15;;;;;;;9.25;4.93;;;;;;;17.54;100.00;101832.28;5038081;28;20049;-79
2022/07/16 05:40:40;;;;;;;8.95;5.68;;;;;;;17.64;100.00;101838.72;5023174;28;20037;-79
2022/07/16 05:43:07;;;;;;;8.27;5.85;;;;;;;17.78;100.00;101842.09;5041536;28;20049;-78
2022/07/16 05:45:32;;;;;;;12.02;5.18;;;;;;;18.01;100.00;101845.50;5041720;28;20121;-78
2022/07/16 05:47:58;;;;;;;18.83;6.20;;;;;;;18.10;100.00;101836.31;5040418;28;20029;-78
2022/07/16 05:50:24;;;;;;;7.57;5.32;;;;;;;18.42;100.00;101843.41;4990577;28;20044;-78
2022/07/16 05:52:49;;;;;;;9.18;5.32;;;;;;;18.41;100.00;101844.41;5048863;28;20045;-79
2022/07/16 05:55:15;;;;;;;10.40;5.32;;;;;;;18.79;100.00;101853.69;5042798;28;20448;-79
2022/07/16 05:57:40;;;;;;;11.32;5.32;;;;;;;18.99;100.00;101845.31;5049423;28;20495;-79
2022/07/16 06:00:09;;;;;;;14.25;5.53;;;;;;;18.99;100.00;101848.06;5051667;28;20657;-79
2022/07/16 06:02:34;;;;;;;10.57;5.63;;;;;;;19.30;100.00;101851.47;5033450;28;20037;-79
2022/07/16 06:05:00;;;;;;;12.60;5.85;;;;;;;19.51;100.00;101850.31;5042647;28;20484;-79
2022/07/16 06:07:25;;;;;;;9.00;4.50;;;;;;;19.52;100.00;101852.94;5025573;28;20045;-79
2022/07/16 06:09:51;;;;;;;11.77;4.05;;;;;;;19.61;100.00;101853.88;5051154;28;20051;-80
2022/07/16 06:12:16;;;;;;;7.85;4.07;;;;;;;19.43;100.00;101857.53;5039565;28;20457;-79
2022/07/16 06:14:42;;;;;;;9.25;4.13;;;;;;;19.99;100.00;101851.91;5042161;28;20074;-79
2022/07/16 06:17:08;;;;;;;5.55;3.72;;;;;;;19.77;100.00;101859.66;5035537;28;20044;-79
2022/07/16 06:19:33;;;;;;;7.57;3.72;;;;;;;20.35;100.00;101871.34;5023419;28;20041;-79
2022/07/16 06:21:59;;;;;;;9.38;3.08;;;;;;;20.49;100.00;101867.97;5020720;28;20059;-81
2022/07/16 06:24:24;;;;;;;5.60;2.30;;;;;;;20.51;100.00;101877.03;5040230;28;20033;-81
2022/07/16 06:26:50;;;;;;;3.97;2.20;;;;;;;20.83;100.00;101874.69;5017890;28;20067;-81
2022/07/16 06:29:16;;;;;;;7.85;2.53;;;;;;;20.89;100.00;101883.25;5037012;28;20087;-81
2022/07/16 06:31:44;;;;;;;9.57;2.20;;;;;;;20.42;100.00;101886.34;5046254;28;20037;-81
2022/07/16 06:34:10;;;;;;;11.13;2.08;;;;;;;20.48;100.00;101893.16;5037877;28;20444;-81
2022/07/16 06:36:35;;;;;;;4.90;2.10;;;;;;;20.39;100.00;101890.31;5031380;28;20103;-80
2022/07/16 06:39:03;;;;;;;4.90;1.80;;;;;;;20.60;100.00;101894.66;5040148;28;20049;-80
2022/07/16 06:41:29;;;;;;;7.70;1.88;;;;;;;19.95;100.00;101897.72;5035293;28;20046;-80
2022/07/16 06:43:55;;;;;;;8.68;2.40;;;;;;;19.94;100.00;101887.63;5024302;28;20033;-80
2022/07/16 06:46:20;;;;;;;5.72;2.00;;;;;;;20.46;100.00;101904.44;5048142;28;20055;-78
2022/07/16 06:48:46;;;;;;;6.22;2.10;;;;;;;20.69;100.00;101898.41;5031632;28;20108;-78
2022/07/16 06:51:12;;;;;;;7.30;2.50;;;;;;;20.12;100.00;101899.66;5032540;28;20042;-78
2022/07/16 06:53:39;;;;;;;5.45;2.03;;;;;;;19.77;100.00;101900.47;5014465;28;20028;-78
2022/07/16 06:56:06;;;;;;;10.02;2.75;;;;;;;19.51;100.00;101906.72;5033154;28;20091;-77
2022/07/16 06:58:32;;;;;;;5.95;2.00;;;;;;;20.11;100.00;101917.34;5022955;28;20030;-78
2022/07/16 07:00:59;;;;;;;8.25;1.98;;;;;;;20.12;100.00;101918.22;5019145;28;20446;-78
2022/07/16 07:03:24;;;;;;;7.22;1.88;;;;;;;19.60;100.00;101916.94;5038252;28;20033;-78
2022/07/16 07:05:50;;;;;;;7.28;2.17;;;;;;;19.24;100.00;101922.34;5018581;28;20149;-77
2022/07/16 07:08:15;;;;;;;5.03;1.50;;;;;;;19.33;100.00;101928.03;5039352;28;20059;-77
2022/07/16 07:10:41;;;;;;;6.47;2.00;;;;;;;19.04;100.00;101926.25;5038552;28;20037;-78
2022/07/16 07:13:07;;;;;;;10.80;2.03;;;;;;;19.38;100.00;101929.34;5043878;28;20086;-79
2022/07/16 07:15:32;;;;;;;3.47;1.52;;;;;;;20.09;100.00;101943.59;5033300;28;20033;-77
2022/07/16 07:17:58;;;;;;;4.35;1.80;;;;;;;19.96;100.00;101935.63;5041788;28;20044;-77
2022/07/16 07:20:23;;;;;;;4.47;1.67;;;;;;;21.12;100.00;101938.41;5052438;28;20446;-77
2022/07/16 07:22:49;;;;;;;4.82;1.33;;;;;;;21.85;94.65;101940.66;5036320;28;20115;-77
2022/07/16 07:25:14;;;;;;;5.47;1.67;;;;;;;21.57;95.04;101939.19;5035756;28;20052;-78
2022/07/16 07:27:40;;;;;;;4.40;1.35;;;;;;;21.89;90.80;101943.13;5016413;28;20422;-78
2022/07/16 07:30:06;;;;;;;3.30;1.20;;;;;;;22.06;88.72;101944.06;5013441;28;20041;-77
2022/07/16 07:32:31;;;;;;;5.70;1.20;;;;;;;22.06;89.97;101953.28;5036877;28;20069;-77
2022/07/16 07:34:57;;;;;;;3.75;1.60;;;;;;;22.01;89.23;101951.00;5040752;28;20037;-77
2022/07/16 07:37:23;;;;;;;4.47;1.13;;;;;;;21.63;89.81;101950.53;5017925;28;20046;-78
2022/07/16 07:39:49;;;;;;;4.85;1.13;;;;;;;20.90;93.74;101939.81;5037052;28;20362;-78
2022/07/16 07:42:14;;;;;;;3.72;1.35;;;;;;;21.41;89.29;101951.94;5037699;28;20033;-78
2022/07/16 07:44:40;;;;;;;4.75;0.85;;;;;;;21.45;82.18;101958.94;4989019;28;20040;-77
2022/07/16 07:47:05;;;;;;;4.90;0.80;;;;;;;20.70;84.76;101958.63;5046714;28;20048;-77
2022/07/16 07:49:31;;;;;;;5.70;0.70;;;;;;;20.97;82.04;101956.72;5053611;28;20087;-77
2022/07/16 07:51:57;;;;;;;3.60;0.88;;;;;;;20.81;79.15;101966.72;5020228;28;20084;-76
2022/07/16 07:54:22;;;;;;;3.13;0.65;;;;;;;21.45;76.97;101958.09;5035223;28;20033;-77
2022/07/16 07:56:48;;;;;;;4.03;0.90;;;;;;;21.96;75.03;101966.53;5043855;28;20040;-77
2022/07/16 07:59:14;;;;;;;1.60;0.60;;;;;;;22.10;72.91;101967.78;5041885;28;20061;-77
2022/07/16 08:01:40;;;;;;;3.67;0.80;;;;;;;22.27;72.03;101963.09;5039859;28;20060;-78
2022/07/16 08:04:05;;;;;;;4.07;0.80;;;;;;;22.50;74.10;101971.72;5037651;28;20036;-77
2022/07/16 08:06:31;;;;;;;2.60;0.93;;;;;;;22.67;71.39;101976.25;5033579;28;20090;-78
2022/07/16 08:08:56;;;;;;;12.40;0.95;;;;;;;22.86;69.13;101976.97;5056717;28;20078;-78
2022/07/16 08:11:22;;;;;;;5.22;0.80;;;;;;;22.33;68.76;101976.38;5051726;28;20036;-77
2022/07/16 08:13:48;;;;;;;2.92;0.77;;;;;;;22.54;67.53;101970.31;5042928;28;20052;-77
2022/07/16 08:16:13;;;;;;;4.80;0.70;;;;;;;22.45;67.28;101980.63;5026572;28;20041;-76
2022/07/16 08:18:39;;;;;;;3.75;0.98;;;;;;;22.85;64.64;101984.47;5055110;28;20032;-77
2022/07/16 08:21:05;;;;;;;5.78;0.82;;;;;;;23.22;62.43;101994.25;5027930;28;20504;-77
2022/07/16 08:26:14;;;;;;;4.63;0.80;;;;;;;23.76;62.04;101993.56;5037688;28;20033;-77
2022/07/16 08:28:41;;;;;;;3.70;0.80;;;;;;;23.76;63.15;101987.09;5033769;28;20048;-77
2022/07/16 08:31:07;;;;;;;4.47;1.10;;;;;;;23.74;64.14;101995.66;5021679;28;20516;-77
2022/07/16 08:33:33;;;;;;;5.55;0.90;;;;;;;24.16;64.01;102000.03;5041738;28;20029;-77
2022/07/16 08:36:00;;;;;;;2.25;1.05;;;;;;;23.78;65.38;101997.06;5048140;28;20519;-77
2022/07/16 08:38:27;;;;;;;6.63;1.40;;;;;;;23.70;65.22;101999.03;5033712;28;20104;-77
2022/07/16 08:40:55;;;;;;;7.45;0.90;;;;;;;24.14;63.02;101998.50;5034910;28;20119;-76
2022/07/16 08:43:22;;;;;;;7.05;1.02;;;;;;;24.53;59.51;102000.34;5047189;28;20468;-77
2022/07/16 08:45:47;;;;;;;3.17;1.08;;;;;;;24.62;54.14;102007.66;5020731;28;20059;-77
2022/07/16 08:48:13;;;;;;;4.10;0.90;;;;;;;24.54;53.86;102010.50;5050395;28;20037;-77
2022/07/16 08:50:41;;;;;;;5.43;0.95;;;;;;;24.42;55.90;102023.19;5046519;28;20041;-78
2022/07/16 08:53:08;;;;;;;4.28;0.90;;;;;;;24.70;55.30;102013.19;5040091;28;20041;-77
2022/07/16 08:55:36;;;;;;;3.20;1.05;;;;;;;24.46;57.70;102019.81;5046107;28;20039;-78
2022/07/16 08:58:02;;;;;;;3.85;0.70;;;;;;;24.40;54.91;102015.84;5044588;28;20060;-78
2022/07/16 09:00:28;;;;;;;4.13;0.90;;;;;;;24.51;56.33;102022.91;5041513;28;20151;-79
2022/07/16 09:02:58;;;;;;;3.75;0.75;;;;;;;24.68;56.83;102031.28;5041565;28;20371;-79
2022/07/16 09:05:24;;;;;;;3.53;1.10;;;;;;;24.73;57.21;102017.56;5037075;28;20088;-79
2022/07/16 09:07:51;;;;;;;3.30;0.77;;;;;;;25.21;54.18;102031.34;5037499;28;20099;-80
2022/07/16 09:10:17;;;;;;;2.88;1.00;;;;;;;25.30;53.61;102035.81;5039040;28;20107;-78
2022/07/16 09:12:47;;;;;;;3.35;0.75;;;;;;;25.34;54.62;102036.34;5073374;28;20083;-79
2022/07/16 09:15:42;;;;;;;2.55;0.68;;;;;;;25.61;53.96;102046.03;5056475;28;20037;-78
2022/07/16 09:18:18;;;;;;;3.20;0.70;;;;;;;24.77;55.84;102039.38;5055523;28;20037;-79
2022/07/16 09:20:50;;;;;;;4.70;0.88;;;;;;;24.23;56.88;102056.16;5028849;28;20025;-78
2022/07/16 09:23:36;;;;;;;10.90;0.90;;;;;;;22.74;61.61;102051.81;5054119;28;20538;-78
2022/07/16 09:26:08;;;;;;;4.80;0.88;;;;;;;23.20;59.20;102046.66;5042421;28;20833;-78
2022/07/16 09:28:45;;;;;;;4.65;0.77;;;;;;;23.97;55.16;102050.84;5044397;28;20437;-79
2022/07/16 09:31:36;;;;;;;4.80;0.68;;;;;;;24.55;55.81;102043.03;5038148;28;20493;-79
2022/07/16 09:34:07;;;;;;;1.45;0.60;;;;;;;25.09;53.83;102044.94;5037373;28;20029;-79
2022/07/16 09:36:33;;;;;;;4.38;1.02;;;;;;;25.58;52.73;102041.69;5047958;28;20119;-79
2022/07/16 09:38:59;;;;;;;6.75;1.00;;;;;;;25.92;51.54;102033.75;5050939;28;20083;-79
2022/07/16 09:41:24;;;;;;;5.65;1.08;;;;;;;26.76;48.23;102047.34;5030607;28;20029;-79
2022/07/16 09:43:50;;;;;;;3.30;0.80;;;;;;;25.01;51.24;102059.91;5040900;28;20112;-78
2022/07/16 09:46:24;;;;;;;7.10;0.98;;;;;;;25.37;52.08;102056.44;5044415;28;20037;-78
2022/07/16 09:48:51;;;;;;;2.00;0.77;;;;;;;24.53;54.09;102060.03;5033523;28;20037;-78
2022/07/16 09:51:22;;;;;;;3.00;0.80;;;;;;;24.58;52.35;102054.78;5053790;28;20029;-78
2022/07/16 09:53:49;;;;;;;3.15;0.63;;;;;;;25.22;51.54;102059.19;5048685;28;20389;-79
2022/07/16 09:56:20;;;;;;;5.63;0.90;;;;;;;25.12;51.60;102061.34;5036122;28;20035;-78
2022/07/16 09:58:50;;;;;;;3.35;0.90;;;;;;;25.10;51.80;102067.19;5035594;28;20111;-79
2022/07/16 10:01:17;;;;;;;2.08;0.55;;;;;;;24.30;52.00;102068.38;5035791;28;20030;-78
2022/07/16 10:03:44;;;;;;;3.03;0.70;;;;;;;23.32;54.40;102069.53;5018064;28;20128;-78
2022/07/16 10:06:10;;;;;;;2.10;0.70;;;;;;;23.35;54.13;102074.75;5035052;28;20045;-77
2022/07/16 10:08:36;;;;;;;3.15;0.77;;;;;;;24.16;52.71;102077.56;5040681;28;20033;-78
2022/07/16 10:11:04;;;;;;;2.28;0.63;;;;;;;24.69;51.42;102063.81;5049337;28;20041;-78
2022/07/16 10:13:32;;;;;;;3.08;0.80;;;;;;;24.90;48.40;102085.56;5048953;28;20033;-78
2022/07/16 10:15:58;;;;;;;5.60;0.88;;;;;;;25.11;47.74;102074.50;5038470;28;20029;-79
2022/07/16 10:18:32;;;;;;;3.95;0.77;;;;;;;25.34;48.21;102073.66;5056681;28;20087;-78
2022/07/16 10:21:19;;;;;;;6.90;1.00;;;;;;;25.65;46.63;102081.06;5036296;28;20416;-78
2022/07/16 10:24:04;;;;;;;1.25;0.55;;;;;;;25.17;45.95;102086.03;5035584;28;20036;-78
2022/07/16 10:26:32;;;;;;;4.90;0.75;;;;;;;25.00;46.04;102074.09;5055742;28;20039;-79
2022/07/16 10:28:59;;;;;;;4.70;0.88;;;;;;;25.43;47.49;102075.31;5055434;28;20033;-78
2022/07/16 10:31:32;;;;;;;5.10;0.80;;;;;;;24.98;49.59;102076.22;5056285;28;20036;-79
2022/07/16 10:34:13;;;;;;;;;;;;;;;25.12;48.63;102084.69;5038881;28;20033;-77
2022/07/16 10:36:46;;;;;;;3.05;0.80;;;;;;;25.63;46.54;102085.97;5043677;28;19936;-77
2022/07/16 10:39:15;;;;;;;3.63;0.70;;;;;;;25.35;47.43;102094.13;5043201;28;20485;-77
2022/07/16 10:41:55;;;;;;;7.68;0.95;;;;;;;25.53;48.81;102100.31;5050241;28;20119;-78
2022/07/16 10:44:23;;;;;;;2.60;0.63;;;;;;;25.19;48.25;102089.53;5050360;28;20043;-77
2022/07/16 10:46:58;;;;;;;2.80;0.80;;;;;;;24.98;47.67;102096.69;5037286;28;20527;-77
2022/07/16 10:49:25;;;;;;;3.03;0.63;;;;;;;23.83;50.81;102105.63;5054013;28;20040;-78
2022/07/16 10:51:57;;;;;;;9.68;0.82;;;;;;;24.07;51.04;102110.31;5026222;28;20484;-78
2022/07/16 10:54:31;;;;;;;1.67;0.67;;;;;;;23.88;50.87;102105.13;5037080;28;20484;-79
2022/07/16 10:56:59;;;;;;;5.20;0.60;;;;;;;24.64;48.64;102105.50;5045626;28;20644;-77
2022/07/16 10:59:28;;;;;;;3.75;0.85;;;;;;;25.36;49.66;102110.78;5032728;28;20037;-77
2022/07/16 11:02:01;;;;;;;3.42;0.60;;;;;;;25.77;47.99;102109.50;5040793;28;20115;-78
2022/07/16 11:04:44;;;;;;;3.38;0.80;;;;;;;25.21;48.11;102107.03;5053024;28;20036;-77
2022/07/16 11:07:21;;;;;;;6.57;1.10;;;;;;;24.79;48.91;102109.25;5051236;28;20060;-78
2022/07/16 11:09:49;;;;;;;4.05;0.70;;;;;;;23.94;50.72;102118.34;5033130;28;20044;-78
2022/07/16 11:12:16;;;;;;;6.38;0.80;;;;;;;23.57;51.59;102123.47;5048985;28;20063;-78
2022/07/16 11:14:47;;;;;;;5.60;1.00;;;;;;;23.78;51.62;102108.06;5053212;28;20032;-78
2022/07/16 11:17:14;;;;;;;4.00;0.70;;;;;;;23.50;53.30;102111.25;5030324;28;20038;-77
2022/07/16 11:19:48;;;;;;;9.00;0.88;;;;;;;23.35;52.91;102113.91;5031527;28;20037;-76
2022/07/16 11:22:15;;;;;;;2.83;0.80;;;;;;;23.85;52.79;102120.31;5037921;28;20037;-78
2022/07/16 11:24:48;;;;;;;4.38;0.90;;;;;;;24.43;50.03;102115.38;5036099;28;20029;-77